Date,TemperatureHighF,TemperatureAvgF,TemperatureLowF,DewpointHighF,DewpointAvgF,DewpointLowF,HumidityHigh,HumidityAvg,HumidityLow,PressureMaxIn,PressureMinIn,WindSpeedMaxMPH,WindSpeedAvgMPH,GustSpeedMaxMPH,PrecipitationSumIn
2013-11-1,49.0,33.4,25.0,35.0,27.7,24.0,95,81,51,0.00,40.00,13,7,31,0.00
2013-11-2,49.0,32.7,20.0,33.0,24.7,-99.9,94,77,51,0.00,40.00,8,4,16,0.00
2013-11-3,49.0,40.9,30.0,34.0,31.5,26.0,86,70,51,0.00,40.00,22,13,35,0.00
2013-11-4,46.0,40.0,28.0,34.0,28.0,18.0,71,62,56,0.00,40.00,21,14,31,0.00
2013-11-5,31.0,26.3,21.0,19.0,17.2,15.0,79,68,58,0.00,40.00,16,10,24,0.00
2013-11-6,35.0,25.1,17.0,19.0,16.3,12.0,84,70,48,0.00,40.00,9,7,15,0.00
2013-11-7,34.0,24.7,18.0,21.0,16.3,10.0,91,72,52,0.00,40.00,8,6,13,0.00
2013-11-8,37.0,28.2,17.0,32.0,24.9,14.0,97,88,66,0.00,40.00,14,8,20,0.04
2013-11-9,33.0,32.1,32.0,32.0,29.7,-99.9,99,94,86,0.00,40.00,13,8,20,0.12
2013-11-10,32.0,25.0,13.0,28.0,17.5,4.0,88,73,48,0.00,40.00,17,11,26,0.01
2013-11-11,17.0,12.0,7.0,6.0,3.4,1.0,78,68,57,0.00,40.00,12,9,19,0.00
2013-11-12,32.0,20.2,6.0,19.0,10.2,-1.0,78,65,57,0.00,40.00,14,10,23,0.00
2013-11-13,45.0,34.8,27.0,34.0,26.2,17.0,79,71,61,0.00,40.00,14,11,23,0.00
2013-11-14,37.0,33.3,28.0,35.0,30.6,26.0,97,90,76,0.00,40.00,9,6,16,0.03
2013-11-15,45.0,36.1,27.0,39.0,31.5,25.0,96,84,68,0.00,40.00,15,9,21,0.01
2013-11-16,46.0,38.8,31.0,38.0,32.6,-99.9,95,82,67,0.00,40.00,14,6,21,0.01
2013-11-17,36.0,29.6,22.0,35.0,27.3,18.0,98,91,84,0.00,40.00,12,9,21,0.49
2013-11-18,22.0,19.7,17.0,18.0,15.5,14.0,87,83,76,0.00,40.00,11,7,17,0.01
2013-11-19,37.0,27.9,19.0,30.0,21.4,15.0,86,77,66,0.00,40.00,18,12,32,0.08
2013-11-20,36.0,27.0,19.0,30.0,22.7,15.0,91,84,77,0.00,40.00,12,8,23,0.07
2013-11-21,19.0,10.6,-3.0,16.0,4.7,-8.0,87,77,67,0.00,40.00,13,9,22,0.00
2013-11-22,12.0,7.2,-2.0,7.0,-0.0,-7.0,80,72,62,0.00,40.00,15,12,24,0.00
2013-11-23,4.0,-3.4,-11.0,-1.0,-12.1,-99.9,78,69,61,0.00,40.00,11,7,16,0.00
2013-11-24,31.0,19.0,1.0,25.0,10.7,-6.0,78,70,60,0.00,40.00,21,13,30,0.00
2013-11-25,34.0,26.9,15.0,29.0,20.4,9.0,87,76,63,0.00,40.00,20,14,31,0.01
2013-11-26,18.0,11.4,-1.0,9.0,4.0,-6.0,82,72,57,0.00,40.00,20,10,29,0.00
2013-11-27,14.0,9.1,-4.0,10.0,4.8,-10.0,86,82,76,0.00,40.00,15,7,20,0.00
2013-11-28,15.0,9.0,1.0,10.0,4.5,-3.0,86,81,74,0.00,40.00,8,4,13,0.00
2013-11-29,24.0,13.2,-6.0,18.0,7.7,-12.0,83,78,71,0.00,40.00,12,8,18,0.00
2013-11-30,24.0,21.1,19.0,18.0,15.3,-99.9,93,82,76,0.00,40.00,7,6,12,0.00